Pagrindinis puslapis
METAR-TAF:

METAR-TAF

Oro uostai :

Dar es Salamas, Tanzanija

platuma: 06-52S, ilguma: 039-12E, Aukštis: 55 m

Dabartinis oras

Ataskaita buvo paskelbta 59 minutes, ne 21:00 UTC
Vėjas 14 kt iš Pietų/Pietvakarių
Temperatūra 28°C
Drėgmė 84%
Slėgis
Matomumas: 1010 m
Mažai debesys ne aukštis 1600 ft, Liūtiniai kamuoliniai debesys.

METAR: HTDA 102100Z 20014KT 9999 BKN0112 FEW016CB 28/25 1010 NOSIG

Laikas: 00:59 (21:59 UTC)

Prognozė

Ataskaita buvo paskelbta 4 valandos ir 59 minutes, ne 17:00 UTC
Prognozė galioja nuo 10 metu 18 UTC su 11 metu 24 UTC
Vėjas 10 kt iš Šiaurės Rytų
Matomumas 10 km arba daugiau
Su prošvaistėmis ne aukštis 1200 ft
Mažai debesys ne aukštis 1400 ft, Liūtiniai kamuoliniai debesys.
Tapsmas
nuo 11 metu 00 UTC su 11 metu 03 UTC
Vėjas kt iš Šiaurės
Tapsmas
nuo 11 metu 09 UTC su 11 metu 12 UTC
Vėjas 10 kt iš Šiaurės/Šiaurės Rytų

TAF: HTDA 101700Z 1018/1124 04010KT 9999 BKN012 FEW014CB BECMG 1100/1103 00000KT BECMG 1109/1112 03010KT

Orai ataskaitas ir orų prognozės (METAR, TAF).

turimą stotys yra geltonos ir raudonos taškus žemėlapyje.

Perkelti pele per norėdami pamatyti stoties vardą.

Tada spustelėkite, norėdami matyti oro stebėjimo ir prognozės.

Norėdami pakeisti žemėlapį: spustelėkite ant žalios mygtukų su juodo kryžiaus žemyn,; žalią mygtuką su brūkšneliu, jei norite nutolinti; arba žalių rodyklių gretimoms žemėlapius.


METAR-TAF: